sensor_id;sensor_type;location;lat;lon;timestamp;P1;durP1;ratioP1;P2;durP2;ratioP2
38379;SDS011;38377;47.418;18.882;2022-09-13T00:00:38;4.20;;;3.80;;
38379;SDS011;38377;47.418;18.882;2022-09-13T00:03:05;4.95;;;3.60;;
38379;SDS011;38377;47.418;18.882;2022-09-13T00:05:32;4.10;;;3.70;;
38379;SDS011;38377;47.418;18.882;2022-09-13T00:07:57;5.47;;;4.05;;
38379;SDS011;38377;47.418;18.882;2022-09-13T00:10:23;4.60;;;3.83;;
38379;SDS011;38377;47.418;18.882;2022-09-13T00:12:50;4.28;;;3.88;;
38379;SDS011;38377;47.418;18.882;2022-09-13T00:15:16;5.13;;;4.22;;
38379;SDS011;38377;47.418;18.882;2022-09-13T00:17:42;5.82;;;3.80;;
38379;SDS011;38377;47.418;18.882;2022-09-13T00:20:08;4.60;;;4.10;;
38379;SDS011;38377;47.418;18.882;2022-09-13T00:22:34;4.75;;;3.85;;
38379;SDS011;38377;47.418;18.882;2022-09-13T00:25:01;4.88;;;3.90;;
38379;SDS011;38377;47.418;18.882;2022-09-13T00:27:27;4.60;;;4.10;;
38379;SDS011;38377;47.418;18.882;2022-09-13T00:29:53;4.88;;;3.95;;
38379;SDS011;38377;47.418;18.882;2022-09-13T00:32:19;5.88;;;3.78;;
38379;SDS011;38377;47.418;18.882;2022-09-13T00:34:44;4.70;;;4.30;;
38379;SDS011;38377;47.418;18.882;2022-09-13T00:37:10;4.85;;;4.35;;
38379;SDS011;38377;47.418;18.882;2022-09-13T00:39:36;4.57;;;4.10;;
38379;SDS011;38377;47.418;18.882;2022-09-13T00:42:01;4.65;;;4.10;;
38379;SDS011;38377;47.418;18.882;2022-09-13T00:47:44;4.70;;;4.20;;
38379;SDS011;38377;47.418;18.882;2022-09-13T00:55:34;8.93;;;4.60;;
38379;SDS011;38377;47.418;18.882;2022-09-13T00:58:19;5.18;;;4.68;;
38379;SDS011;38377;47.418;18.882;2022-09-13T01:00:55;5.72;;;5.07;;
38379;SDS011;38377;47.418;18.882;2022-09-13T01:03:23;5.40;;;4.60;;
38379;SDS011;38377;47.418;18.882;2022-09-13T01:05:55;5.35;;;4.53;;
38379;SDS011;38377;47.418;18.882;2022-09-13T01:08:24;5.22;;;4.72;;
38379;SDS011;38377;47.418;18.882;2022-09-13T01:10:51;5.43;;;4.20;;
38379;SDS011;38377;47.418;18.882;2022-09-13T01:13:21;5.28;;;4.43;;
38379;SDS011;38377;47.418;18.882;2022-09-13T01:15:49;5.15;;;4.50;;
38379;SDS011;38377;47.418;18.882;2022-09-13T01:18:15;5.32;;;4.40;;
38379;SDS011;38377;47.418;18.882;2022-09-13T01:41:20;6.25;;;4.95;;
38379;SDS011;38377;47.418;18.882;2022-09-13T01:43:57;4.88;;;4.38;;
38379;SDS011;38377;47.418;18.882;2022-09-13T02:00:08;5.13;;;4.63;;
38379;SDS011;38377;47.418;18.882;2022-09-13T02:05:12;5.75;;;5.22;;
38379;SDS011;38377;47.418;18.882;2022-09-13T02:07:54;5.28;;;4.78;;
38379;SDS011;38377;47.418;18.882;2022-09-13T02:10:29;5.72;;;5.00;;
38379;SDS011;38377;47.418;18.882;2022-09-13T02:13:03;6.53;;;5.03;;
38379;SDS011;38377;47.418;18.882;2022-09-13T02:15:36;5.28;;;4.78;;
38379;SDS011;38377;47.418;18.882;2022-09-13T02:20:37;6.05;;;5.45;;
38379;SDS011;38377;47.418;18.882;2022-09-13T02:23:14;5.95;;;5.45;;
38379;SDS011;38377;47.418;18.882;2022-09-13T02:25:45;6.13;;;5.07;;
38379;SDS011;38377;47.418;18.882;2022-09-13T02:28:16;8.17;;;4.83;;
38379;SDS011;38377;47.418;18.882;2022-09-13T02:30:48;5.28;;;4.78;;
38379;SDS011;38377;47.418;18.882;2022-09-13T02:33:50;7.00;;;4.57;;
38379;SDS011;38377;47.418;18.882;2022-09-13T02:36:18;5.75;;;4.72;;
38379;SDS011;38377;47.418;18.882;2022-09-13T02:38:49;5.28;;;4.78;;
38379;SDS011;38377;47.418;18.882;2022-09-13T02:41:19;5.97;;;5.30;;
38379;SDS011;38377;47.418;18.882;2022-09-13T02:43:54;5.50;;;4.82;;
38379;SDS011;38377;47.418;18.882;2022-09-13T02:55:19;5.50;;;5.00;;
38379;SDS011;38377;47.418;18.882;2022-09-13T02:57:51;6.13;;;5.03;;
38379;SDS011;38377;47.418;18.882;2022-09-13T03:00:18;5.43;;;4.72;;
38379;SDS011;38377;47.418;18.882;2022-09-13T03:02:44;5.47;;;4.97;;
38379;SDS011;38377;47.418;18.882;2022-09-13T03:05:12;4.90;;;4.35;;
38379;SDS011;38377;47.418;18.882;2022-09-13T03:07:38;7.15;;;5.38;;
38379;SDS011;38377;47.418;18.882;2022-09-13T03:10:05;6.20;;;5.47;;
38379;SDS011;38377;47.418;18.882;2022-09-13T03:26:10;5.90;;;5.30;;
38379;SDS011;38377;47.418;18.882;2022-09-13T03:34:58;6.45;;;5.25;;
38379;SDS011;38377;47.418;18.882;2022-09-13T03:37:41;5.28;;;4.80;;
38379;SDS011;38377;47.418;18.882;2022-09-13T03:40:39;6.00;;;5.40;;
38379;SDS011;38377;47.418;18.882;2022-09-13T03:43:18;5.90;;;5.30;;
38379;SDS011;38377;47.418;18.882;2022-09-13T03:46:01;6.47;;;5.60;;
38379;SDS011;38377;47.418;18.882;2022-09-13T03:48:31;7.50;;;5.60;;
38379;SDS011;38377;47.418;18.882;2022-09-13T03:51:02;6.85;;;6.15;;
38379;SDS011;38377;47.418;18.882;2022-09-13T03:53:29;6.22;;;5.57;;
38379;SDS011;38377;47.418;18.882;2022-09-13T03:55:58;8.00;;;5.93;;
38379;SDS011;38377;47.418;18.882;2022-09-13T03:58:24;5.95;;;5.35;;
38379;SDS011;38377;47.418;18.882;2022-09-13T04:00:50;7.50;;;5.40;;
38379;SDS011;38377;47.418;18.882;2022-09-13T04:03:18;9.40;;;5.60;;
38379;SDS011;38377;47.418;18.882;2022-09-13T04:05:44;5.15;;;4.60;;
38379;SDS011;38377;47.418;18.882;2022-09-13T04:08:10;5.75;;;5.25;;
38379;SDS011;38377;47.418;18.882;2022-09-13T04:10:39;7.20;;;5.28;;
38379;SDS011;38377;47.418;18.882;2022-09-13T04:13:04;6.85;;;5.15;;
38379;SDS011;38377;47.418;18.882;2022-09-13T04:15:30;6.82;;;5.28;;
38379;SDS011;38377;47.418;18.882;2022-09-13T04:17:56;6.38;;;5.32;;
38379;SDS011;38377;47.418;18.882;2022-09-13T04:20:22;6.35;;;5.65;;
38379;SDS011;38377;47.418;18.882;2022-09-13T04:22:52;7.75;;;5.57;;
38379;SDS011;38377;47.418;18.882;2022-09-13T04:25:19;6.03;;;4.30;;
38379;SDS011;38377;47.418;18.882;2022-09-13T04:27:46;8.55;;;6.10;;
38379;SDS011;38377;47.418;18.882;2022-09-13T04:30:12;7.22;;;5.88;;
38379;SDS011;38377;47.418;18.882;2022-09-13T04:32:38;5.68;;;4.95;;
38379;SDS011;38377;47.418;18.882;2022-09-13T04:35:06;8.38;;;6.60;;
38379;SDS011;38377;47.418;18.882;2022-09-13T04:37:33;9.43;;;6.28;;
38379;SDS011;38377;47.418;18.882;2022-09-13T04:39:58;8.30;;;5.80;;
38379;SDS011;38377;47.418;18.882;2022-09-13T04:42:24;8.10;;;5.90;;
38379;SDS011;38377;47.418;18.882;2022-09-13T04:44:50;10.70;;;6.30;;
38379;SDS011;38377;47.418;18.882;2022-09-13T04:47:15;10.63;;;5.85;;
38379;SDS011;38377;47.418;18.882;2022-09-13T04:49:41;7.88;;;6.18;;
38379;SDS011;38377;47.418;18.882;2022-09-13T04:52:07;8.30;;;6.38;;
38379;SDS011;38377;47.418;18.882;2022-09-13T04:54:32;7.00;;;6.22;;
38379;SDS011;38377;47.418;18.882;2022-09-13T04:56:58;16.38;;;6.60;;
38379;SDS011;38377;47.418;18.882;2022-09-13T04:59:24;10.07;;;6.30;;
38379;SDS011;38377;47.418;18.882;2022-09-13T05:01:49;10.13;;;7.30;;
38379;SDS011;38377;47.418;18.882;2022-09-13T05:04:15;8.40;;;6.45;;
38379;SDS011;38377;47.418;18.882;2022-09-13T05:06:41;7.97;;;6.40;;
38379;SDS011;38377;47.418;18.882;2022-09-13T05:09:09;8.50;;;6.13;;
38379;SDS011;38377;47.418;18.882;2022-09-13T05:11:37;10.77;;;6.95;;
38379;SDS011;38377;47.418;18.882;2022-09-13T05:14:03;10.20;;;7.15;;
38379;SDS011;38377;47.418;18.882;2022-09-13T05:16:30;11.52;;;7.38;;
38379;SDS011;38377;47.418;18.882;2022-09-13T05:18:57;10.70;;;6.82;;
38379;SDS011;38377;47.418;18.882;2022-09-13T05:21:24;10.48;;;6.55;;
38379;SDS011;38377;47.418;18.882;2022-09-13T05:23:51;9.07;;;6.55;;
38379;SDS011;38377;47.418;18.882;2022-09-13T05:26:18;10.95;;;7.43;;
38379;SDS011;38377;47.418;18.882;2022-09-13T05:28:45;14.57;;;7.22;;
38379;SDS011;38377;47.418;18.882;2022-09-13T05:31:18;10.35;;;6.13;;
38379;SDS011;38377;47.418;18.882;2022-09-13T05:33:51;12.07;;;6.57;;
38379;SDS011;38377;47.418;18.882;2022-09-13T05:36:19;10.93;;;6.25;;
38379;SDS011;38377;47.418;18.882;2022-09-13T05:38:45;11.93;;;6.70;;
38379;SDS011;38377;47.418;18.882;2022-09-13T05:41:10;15.15;;;6.75;;
38379;SDS011;38377;47.418;18.882;2022-09-13T05:43:36;10.88;;;5.28;;
38379;SDS011;38377;47.418;18.882;2022-09-13T05:46:03;10.38;;;6.50;;
38379;SDS011;38377;47.418;18.882;2022-09-13T05:48:30;10.85;;;5.95;;
38379;SDS011;38377;47.418;18.882;2022-09-13T05:51:02;11.10;;;5.30;;
38379;SDS011;38377;47.418;18.882;2022-09-13T05:53:31;12.43;;;5.35;;
38379;SDS011;38377;47.418;18.882;2022-09-13T05:55:57;8.73;;;4.95;;
38379;SDS011;38377;47.418;18.882;2022-09-13T05:58:23;7.55;;;4.05;;
38379;SDS011;38377;47.418;18.882;2022-09-13T06:00:53;8.65;;;4.60;;
38379;SDS011;38377;47.418;18.882;2022-09-13T06:03:19;5.25;;;3.60;;
38379;SDS011;38377;47.418;18.882;2022-09-13T06:05:46;6.95;;;3.70;;
38379;SDS011;38377;47.418;18.882;2022-09-13T06:08:11;3.05;;;2.72;;
38379;SDS011;38377;47.418;18.882;2022-09-13T06:10:37;4.50;;;3.42;;
38379;SDS011;38377;47.418;18.882;2022-09-13T06:13:03;5.43;;;3.08;;
38379;SDS011;38377;47.418;18.882;2022-09-13T06:15:28;4.00;;;2.88;;
38379;SDS011;38377;47.418;18.882;2022-09-13T06:17:54;3.75;;;2.50;;
38379;SDS011;38377;47.418;18.882;2022-09-13T06:20:20;6.97;;;2.50;;
38379;SDS011;38377;47.418;18.882;2022-09-13T06:22:48;3.97;;;2.65;;
38379;SDS011;38377;47.418;18.882;2022-09-13T06:25:14;2.55;;;2.10;;
38379;SDS011;38377;47.418;18.882;2022-09-13T06:27:41;4.47;;;2.53;;
38379;SDS011;38377;47.418;18.882;2022-09-13T06:30:07;6.00;;;2.55;;
38379;SDS011;38377;47.418;18.882;2022-09-13T06:32:36;5.88;;;2.38;;
38379;SDS011;38377;47.418;18.882;2022-09-13T06:35:01;3.63;;;1.92;;
38379;SDS011;38377;47.418;18.882;2022-09-13T06:37:27;5.35;;;2.58;;
38379;SDS011;38377;47.418;18.882;2022-09-13T06:39:53;4.07;;;2.28;;
38379;SDS011;38377;47.418;18.882;2022-09-13T06:42:18;6.60;;;2.63;;
38379;SDS011;38377;47.418;18.882;2022-09-13T06:44:44;4.22;;;2.30;;
38379;SDS011;38377;47.418;18.882;2022-09-13T06:47:10;5.97;;;2.45;;
38379;SDS011;38377;47.418;18.882;2022-09-13T06:49:37;3.75;;;2.60;;
38379;SDS011;38377;47.418;18.882;2022-09-13T06:52:03;3.22;;;2.28;;
38379;SDS011;38377;47.418;18.882;2022-09-13T06:54:28;4.68;;;2.55;;
38379;SDS011;38377;47.418;18.882;2022-09-13T06:56:54;4.65;;;2.50;;
38379;SDS011;38377;47.418;18.882;2022-09-13T06:59:20;2.78;;;2.10;;
38379;SDS011;38377;47.418;18.882;2022-09-13T07:01:45;3.70;;;2.17;;
38379;SDS011;38377;47.418;18.882;2022-09-13T07:04:12;3.58;;;2.13;;
38379;SDS011;38377;47.418;18.882;2022-09-13T07:06:44;3.38;;;2.65;;
38379;SDS011;38377;47.418;18.882;2022-09-13T07:09:16;3.13;;;2.70;;
38379;SDS011;38377;47.418;18.882;2022-09-13T07:11:46;4.70;;;2.50;;
38379;SDS011;38377;47.418;18.882;2022-09-13T07:14:23;3.95;;;2.60;;
38379;SDS011;38377;47.418;18.882;2022-09-13T07:16:50;5.18;;;2.55;;
38379;SDS011;38377;47.418;18.882;2022-09-13T07:19:20;4.57;;;2.70;;
38379;SDS011;38377;47.418;18.882;2022-09-13T07:21:48;5.30;;;2.30;;
38379;SDS011;38377;47.418;18.882;2022-09-13T07:24:15;3.92;;;2.58;;
38379;SDS011;38377;47.418;18.882;2022-09-13T07:26:41;4.38;;;2.90;;
38379;SDS011;38377;47.418;18.882;2022-09-13T07:29:08;6.70;;;3.55;;
38379;SDS011;38377;47.418;18.882;2022-09-13T07:31:37;5.68;;;2.85;;
38379;SDS011;38377;47.418;18.882;2022-09-13T07:34:10;5.72;;;3.45;;
38379;SDS011;38377;47.418;18.882;2022-09-13T07:36:44;4.80;;;2.85;;
38379;SDS011;38377;47.418;18.882;2022-09-13T07:39:11;6.18;;;2.63;;
38379;SDS011;38377;47.418;18.882;2022-09-13T07:41:37;3.38;;;2.90;;
38379;SDS011;38377;47.418;18.882;2022-09-13T07:44:03;4.18;;;3.25;;
38379;SDS011;38377;47.418;18.882;2022-09-13T07:46:31;4.22;;;3.60;;
38379;SDS011;38377;47.418;18.882;2022-09-13T07:49:00;7.00;;;3.90;;
38379;SDS011;38377;47.418;18.882;2022-09-13T07:51:29;5.15;;;3.28;;
38379;SDS011;38377;47.418;18.882;2022-09-13T07:54:01;4.53;;;3.22;;
38379;SDS011;38377;47.418;18.882;2022-09-13T07:56:33;5.80;;;3.33;;
38379;SDS011;38377;47.418;18.882;2022-09-13T07:59:00;6.80;;;3.50;;
38379;SDS011;38377;47.418;18.882;2022-09-13T08:01:33;4.78;;;3.08;;
38379;SDS011;38377;47.418;18.882;2022-09-13T08:04:04;3.17;;;2.75;;
38379;SDS011;38377;47.418;18.882;2022-09-13T08:08:58;5.40;;;3.17;;
38379;SDS011;38377;47.418;18.882;2022-09-13T08:11:25;4.82;;;3.20;;
38379;SDS011;38377;47.418;18.882;2022-09-13T08:13:56;13.57;;;4.35;;
38379;SDS011;38377;47.418;18.882;2022-09-13T08:16:22;6.95;;;3.28;;
38379;SDS011;38377;47.418;18.882;2022-09-13T08:18:50;4.88;;;3.22;;
38379;SDS011;38377;47.418;18.882;2022-09-13T08:21:17;5.05;;;3.50;;
38379;SDS011;38377;47.418;18.882;2022-09-13T08:23:43;6.53;;;3.30;;
38379;SDS011;38377;47.418;18.882;2022-09-13T08:26:10;3.70;;;3.10;;
38379;SDS011;38377;47.418;18.882;2022-09-13T08:28:36;5.43;;;3.28;;
38379;SDS011;38377;47.418;18.882;2022-09-13T08:31:08;8.68;;;3.85;;
38379;SDS011;38377;47.418;18.882;2022-09-13T08:33:35;5.47;;;3.80;;
38379;SDS011;38377;47.418;18.882;2022-09-13T08:36:02;4.30;;;3.25;;
38379;SDS011;38377;47.418;18.882;2022-09-13T08:38:28;4.90;;;3.22;;
38379;SDS011;38377;47.418;18.882;2022-09-13T08:40:57;4.50;;;2.95;;
38379;SDS011;38377;47.418;18.882;2022-09-13T08:48:41;6.32;;;3.30;;
38379;SDS011;38377;47.418;18.882;2022-09-13T08:53:58;6.45;;;2.95;;
38379;SDS011;38377;47.418;18.882;2022-09-13T08:56:34;5.90;;;3.00;;
38379;SDS011;38377;47.418;18.882;2022-09-13T09:07:58;5.55;;;2.90;;
38379;SDS011;38377;47.418;18.882;2022-09-13T09:13:12;4.25;;;2.70;;
38379;SDS011;38377;47.418;18.882;2022-09-13T09:15:50;5.00;;;3.03;;
38379;SDS011;38377;47.418;18.882;2022-09-13T09:21:00;5.00;;;3.25;;
38379;SDS011;38377;47.418;18.882;2022-09-13T09:23:38;5.30;;;3.45;;
38379;SDS011;38377;47.418;18.882;2022-09-13T09:28:46;5.25;;;4.05;;
38379;SDS011;38377;47.418;18.882;2022-09-13T09:31:52;6.90;;;3.50;;
38379;SDS011;38377;47.418;18.882;2022-09-13T09:39:49;7.45;;;3.55;;
38379;SDS011;38377;47.418;18.882;2022-09-13T09:42:18;3.97;;;3.25;;
38379;SDS011;38377;47.418;18.882;2022-09-13T09:44:52;4.22;;;3.22;;
38379;SDS011;38377;47.418;18.882;2022-09-13T09:47:24;4.07;;;2.53;;
38379;SDS011;38377;47.418;18.882;2022-09-13T09:49:58;5.57;;;3.40;;
38379;SDS011;38377;47.418;18.882;2022-09-13T09:52:40;3.67;;;3.20;;
38379;SDS011;38377;47.418;18.882;2022-09-13T09:55:14;7.28;;;3.75;;
38379;SDS011;38377;47.418;18.882;2022-09-13T10:00:24;5.82;;;2.75;;
38379;SDS011;38377;47.418;18.882;2022-09-13T10:02:55;6.45;;;2.88;;
38379;SDS011;38377;47.418;18.882;2022-09-13T10:05:26;10.40;;;2.92;;
38379;SDS011;38377;47.418;18.882;2022-09-13T10:07:56;2.67;;;2.10;;
38379;SDS011;38377;47.418;18.882;2022-09-13T10:10:31;3.05;;;2.15;;
38379;SDS011;38377;47.418;18.882;2022-09-13T10:13:16;4.78;;;2.17;;
38379;SDS011;38377;47.418;18.882;2022-09-13T10:15:58;2.75;;;2.22;;
38379;SDS011;38377;47.418;18.882;2022-09-13T10:18:30;5.97;;;2.53;;
38379;SDS011;38377;47.418;18.882;2022-09-13T10:21:01;4.15;;;2.58;;
38379;SDS011;38377;47.418;18.882;2022-09-13T10:23:33;3.00;;;2.40;;
38379;SDS011;38377;47.418;18.882;2022-09-13T10:26:04;6.03;;;2.75;;
38379;SDS011;38377;47.418;18.882;2022-09-13T10:31:19;5.70;;;2.38;;
38379;SDS011;38377;47.418;18.882;2022-09-13T10:33:55;6.30;;;2.33;;
38379;SDS011;38377;47.418;18.882;2022-09-13T10:36:25;4.95;;;1.98;;
38379;SDS011;38377;47.418;18.882;2022-09-13T10:38:58;4.82;;;2.60;;
38379;SDS011;38377;47.418;18.882;2022-09-13T10:41:27;3.75;;;2.58;;
38379;SDS011;38377;47.418;18.882;2022-09-13T10:43:57;3.40;;;2.43;;
38379;SDS011;38377;47.418;18.882;2022-09-13T10:46:28;4.38;;;2.30;;
38379;SDS011;38377;47.418;18.882;2022-09-13T10:48:56;3.55;;;2.20;;
38379;SDS011;38377;47.418;18.882;2022-09-13T10:54:07;2.83;;;1.60;;
38379;SDS011;38377;47.418;18.882;2022-09-13T10:56:34;1.65;;;1.38;;
38379;SDS011;38377;47.418;18.882;2022-09-13T10:59:13;1.88;;;1.50;;
38379;SDS011;38377;47.418;18.882;2022-09-13T11:01:52;2.35;;;1.52;;
38379;SDS011;38377;47.418;18.882;2022-09-13T11:07:37;3.53;;;1.63;;
38379;SDS011;38377;47.418;18.882;2022-09-13T11:10:36;1.73;;;1.60;;
38379;SDS011;38377;47.418;18.882;2022-09-13T11:13:06;1.92;;;1.63;;
38379;SDS011;38377;47.418;18.882;2022-09-13T11:29:04;2.67;;;1.80;;
38379;SDS011;38377;47.418;18.882;2022-09-13T11:40:02;4.20;;;1.70;;
38379;SDS011;38377;47.418;18.882;2022-09-13T11:42:58;4.43;;;1.50;;
38379;SDS011;38377;47.418;18.882;2022-09-13T11:51:15;3.70;;;1.60;;
38379;SDS011;38377;47.418;18.882;2022-09-13T11:53:55;1.70;;;1.58;;
38379;SDS011;38377;47.418;18.882;2022-09-13T11:56:30;4.22;;;1.77;;
38379;SDS011;38377;47.418;18.882;2022-09-13T11:59:05;1.52;;;1.20;;
38379;SDS011;38377;47.418;18.882;2022-09-13T12:01:48;2.17;;;1.50;;
38379;SDS011;38377;47.418;18.882;2022-09-13T12:04:26;4.82;;;1.60;;
38379;SDS011;38377;47.418;18.882;2022-09-13T12:06:59;1.95;;;1.50;;
38379;SDS011;38377;47.418;18.882;2022-09-13T12:09:29;2.15;;;1.35;;
38379;SDS011;38377;47.418;18.882;2022-09-13T12:14:32;2.08;;;1.70;;
38379;SDS011;38377;47.418;18.882;2022-09-13T12:17:03;2.15;;;1.48;;
38379;SDS011;38377;47.418;18.882;2022-09-13T12:19:41;2.13;;;1.50;;
38379;SDS011;38377;47.418;18.882;2022-09-13T12:22:10;3.70;;;1.20;;
38379;SDS011;38377;47.418;18.882;2022-09-13T12:24:44;1.52;;;1.30;;
38379;SDS011;38377;47.418;18.882;2022-09-13T12:32:46;6.13;;;1.80;;
38379;SDS011;38377;47.418;18.882;2022-09-13T13:00:09;1.30;;;1.13;;
38379;SDS011;38377;47.418;18.882;2022-09-13T13:08:02;2.47;;;1.52;;
38379;SDS011;38377;47.418;18.882;2022-09-13T13:10:34;1.85;;;1.70;;
38379;SDS011;38377;47.418;18.882;2022-09-13T13:13:17;3.03;;;1.50;;
38379;SDS011;38377;47.418;18.882;2022-09-13T13:15:59;1.60;;;1.30;;
38379;SDS011;38377;47.418;18.882;2022-09-13T13:18:46;2.35;;;1.60;;
38379;SDS011;38377;47.418;18.882;2022-09-13T13:29:28;2.60;;;1.38;;
38379;SDS011;38377;47.418;18.882;2022-09-13T13:39:44;1.58;;;1.17;;
38379;SDS011;38377;47.418;18.882;2022-09-13T13:42:26;2.97;;;1.63;;
38379;SDS011;38377;47.418;18.882;2022-09-13T13:50:14;1.73;;;1.63;;
38379;SDS011;38377;47.418;18.882;2022-09-13T13:58:03;3.45;;;1.25;;
38379;SDS011;38377;47.418;18.882;2022-09-13T14:00:44;4.35;;;1.23;;
38379;SDS011;38377;47.418;18.882;2022-09-13T14:20:10;4.10;;;1.50;;
38379;SDS011;38377;47.418;18.882;2022-09-13T14:22:38;3.50;;;1.52;;
38379;SDS011;38377;47.418;18.882;2022-09-13T14:27:49;6.80;;;1.42;;
38379;SDS011;38377;47.418;18.882;2022-09-13T14:32:52;5.47;;;1.70;;
38379;SDS011;38377;47.418;18.882;2022-09-13T14:35:24;4.28;;;1.40;;
38379;SDS011;38377;47.418;18.882;2022-09-13T14:37:55;2.20;;;1.40;;
38379;SDS011;38377;47.418;18.882;2022-09-13T14:40:34;10.30;;;1.88;;
38379;SDS011;38377;47.418;18.882;2022-09-13T14:42:59;3.83;;;1.65;;
38379;SDS011;38377;47.418;18.882;2022-09-13T14:45:37;2.97;;;1.10;;
38379;SDS011;38377;47.418;18.882;2022-09-13T14:48:07;2.92;;;1.00;;
38379;SDS011;38377;47.418;18.882;2022-09-13T14:50:49;5.40;;;1.40;;
38379;SDS011;38377;47.418;18.882;2022-09-13T14:53:23;5.80;;;1.77;;
38379;SDS011;38377;47.418;18.882;2022-09-13T14:55:55;4.03;;;1.17;;
38379;SDS011;38377;47.418;18.882;2022-09-13T14:58:27;4.22;;;1.85;;
38379;SDS011;38377;47.418;18.882;2022-09-13T15:01:13;3.30;;;1.48;;
38379;SDS011;38377;47.418;18.882;2022-09-13T15:03:45;2.97;;;1.27;;
38379;SDS011;38377;47.418;18.882;2022-09-13T15:06:26;4.28;;;1.40;;
38379;SDS011;38377;47.418;18.882;2022-09-13T15:09:13;1.52;;;1.30;;
38379;SDS011;38377;47.418;18.882;2022-09-13T15:11:54;2.45;;;1.50;;
38379;SDS011;38377;47.418;18.882;2022-09-13T15:14:32;8.98;;;1.85;;
38379;SDS011;38377;47.418;18.882;2022-09-13T15:19:46;5.43;;;1.60;;
38379;SDS011;38377;47.418;18.882;2022-09-13T15:22:24;4.30;;;1.60;;
38379;SDS011;38377;47.418;18.882;2022-09-13T15:24:55;6.03;;;1.73;;
38379;SDS011;38377;47.418;18.882;2022-09-13T15:29:56;2.22;;;1.42;;
38379;SDS011;38377;47.418;18.882;2022-09-13T15:32:43;4.00;;;1.60;;
38379;SDS011;38377;47.418;18.882;2022-09-13T15:35:22;2.38;;;1.80;;
38379;SDS011;38377;47.418;18.882;2022-09-13T15:38:09;6.03;;;1.85;;
38379;SDS011;38377;47.418;18.882;2022-09-13T15:40:40;4.20;;;1.80;;
38379;SDS011;38377;47.418;18.882;2022-09-13T15:43:08;3.15;;;1.75;;
38379;SDS011;38377;47.418;18.882;2022-09-13T15:45:34;6.28;;;2.42;;
38379;SDS011;38377;47.418;18.882;2022-09-13T15:48:00;6.50;;;1.80;;
38379;SDS011;38377;47.418;18.882;2022-09-13T15:50:26;4.13;;;1.77;;
38379;SDS011;38377;47.418;18.882;2022-09-13T15:52:55;3.28;;;1.60;;
38379;SDS011;38377;47.418;18.882;2022-09-13T15:55:22;4.35;;;2.03;;
38379;SDS011;38377;47.418;18.882;2022-09-13T15:57:49;6.82;;;1.90;;
38379;SDS011;38377;47.418;18.882;2022-09-13T16:00:19;8.98;;;2.33;;
38379;SDS011;38377;47.418;18.882;2022-09-13T16:02:47;3.70;;;1.70;;
38379;SDS011;38377;47.418;18.882;2022-09-13T16:05:12;2.97;;;1.98;;
38379;SDS011;38377;47.418;18.882;2022-09-13T16:07:39;6.53;;;2.33;;
38379;SDS011;38377;47.418;18.882;2022-09-13T16:10:09;8.10;;;1.80;;
38379;SDS011;38377;47.418;18.882;2022-09-13T16:12:36;4.75;;;1.88;;
38379;SDS011;38377;47.418;18.882;2022-09-13T16:15:02;2.17;;;1.60;;
38379;SDS011;38377;47.418;18.882;2022-09-13T16:17:28;5.47;;;1.90;;
38379;SDS011;38377;47.418;18.882;2022-09-13T16:19:54;6.88;;;2.20;;
38379;SDS011;38377;47.418;18.882;2022-09-13T16:22:20;6.57;;;1.88;;
38379;SDS011;38377;47.418;18.882;2022-09-13T16:24:46;6.25;;;2.05;;
38379;SDS011;38377;47.418;18.882;2022-09-13T16:27:12;4.22;;;2.15;;
38379;SDS011;38377;47.418;18.882;2022-09-13T16:29:39;7.43;;;2.05;;
38379;SDS011;38377;47.418;18.882;2022-09-13T16:32:05;9.43;;;2.03;;
38379;SDS011;38377;47.418;18.882;2022-09-13T16:34:31;5.25;;;2.00;;
38379;SDS011;38377;47.418;18.882;2022-09-13T16:36:57;5.78;;;1.70;;
38379;SDS011;38377;47.418;18.882;2022-09-13T16:39:22;10.45;;;2.00;;
38379;SDS011;38377;47.418;18.882;2022-09-13T16:41:48;8.15;;;2.30;;
38379;SDS011;38377;47.418;18.882;2022-09-13T16:44:14;13.40;;;2.72;;
38379;SDS011;38377;47.418;18.882;2022-09-13T16:46:40;21.40;;;2.92;;
38379;SDS011;38377;47.418;18.882;2022-09-13T16:49:07;13.02;;;2.17;;
38379;SDS011;38377;47.418;18.882;2022-09-13T16:51:33;9.65;;;2.63;;
38379;SDS011;38377;47.418;18.882;2022-09-13T16:53:59;12.13;;;2.92;;
38379;SDS011;38377;47.418;18.882;2022-09-13T16:56:25;11.32;;;2.65;;
38379;SDS011;38377;47.418;18.882;2022-09-13T16:58:51;12.02;;;2.70;;
38379;SDS011;38377;47.418;18.882;2022-09-13T17:01:19;14.82;;;2.70;;
38379;SDS011;38377;47.418;18.882;2022-09-13T17:03:46;13.35;;;3.28;;
38379;SDS011;38377;47.418;18.882;2022-09-13T17:06:13;12.68;;;2.90;;
38379;SDS011;38377;47.418;18.882;2022-09-13T17:08:43;12.32;;;3.10;;
38379;SDS011;38377;47.418;18.882;2022-09-13T17:11:12;7.53;;;2.80;;
38379;SDS011;38377;47.418;18.882;2022-09-13T17:13:40;9.07;;;3.08;;
38379;SDS011;38377;47.418;18.882;2022-09-13T17:16:20;7.88;;;2.72;;
38379;SDS011;38377;47.418;18.882;2022-09-13T17:18:47;11.77;;;2.88;;
38379;SDS011;38377;47.418;18.882;2022-09-13T17:21:13;9.25;;;3.67;;
38379;SDS011;38377;47.418;18.882;2022-09-13T17:23:38;10.50;;;2.72;;
38379;SDS011;38377;47.418;18.882;2022-09-13T17:26:04;10.25;;;3.03;;
38379;SDS011;38377;47.418;18.882;2022-09-13T17:28:30;14.27;;;3.17;;
38379;SDS011;38377;47.418;18.882;2022-09-13T17:30:56;7.85;;;3.00;;
38379;SDS011;38377;47.418;18.882;2022-09-13T17:33:21;7.30;;;3.53;;
38379;SDS011;38377;47.418;18.882;2022-09-13T17:35:56;7.32;;;3.00;;
38379;SDS011;38377;47.418;18.882;2022-09-13T17:38:23;5.18;;;2.90;;
38379;SDS011;38377;47.418;18.882;2022-09-13T17:40:57;10.38;;;3.15;;
38379;SDS011;38377;47.418;18.882;2022-09-13T17:43:23;7.88;;;3.20;;
38379;SDS011;38377;47.418;18.882;2022-09-13T17:45:49;6.75;;;3.22;;
38379;SDS011;38377;47.418;18.882;2022-09-13T17:48:15;5.43;;;3.10;;
38379;SDS011;38377;47.418;18.882;2022-09-13T17:50:40;4.88;;;3.20;;
38379;SDS011;38377;47.418;18.882;2022-09-13T17:53:06;9.75;;;3.50;;
38379;SDS011;38377;47.418;18.882;2022-09-13T17:55:31;7.43;;;3.63;;
38379;SDS011;38377;47.418;18.882;2022-09-13T17:57:57;5.80;;;3.50;;
38379;SDS011;38377;47.418;18.882;2022-09-13T18:00:23;6.93;;;3.50;;
38379;SDS011;38377;47.418;18.882;2022-09-13T18:02:48;7.63;;;3.38;;
38379;SDS011;38377;47.418;18.882;2022-09-13T18:05:14;9.07;;;3.92;;
38379;SDS011;38377;47.418;18.882;2022-09-13T18:07:40;8.82;;;4.43;;
38379;SDS011;38377;47.418;18.882;2022-09-13T18:10:06;8.75;;;4.90;;
38379;SDS011;38377;47.418;18.882;2022-09-13T18:12:32;9.75;;;4.07;;
38379;SDS011;38377;47.418;18.882;2022-09-13T18:14:57;5.38;;;3.70;;
38379;SDS011;38377;47.418;18.882;2022-09-13T18:17:23;6.68;;;3.70;;
38379;SDS011;38377;47.418;18.882;2022-09-13T18:19:49;6.20;;;3.97;;
38379;SDS011;38377;47.418;18.882;2022-09-13T18:22:15;9.15;;;4.55;;
38379;SDS011;38377;47.418;18.882;2022-09-13T18:24:40;7.55;;;4.20;;
38379;SDS011;38377;47.418;18.882;2022-09-13T18:27:06;7.82;;;4.10;;
38379;SDS011;38377;47.418;18.882;2022-09-13T18:29:32;5.75;;;4.20;;
38379;SDS011;38377;47.418;18.882;2022-09-13T18:31:58;6.70;;;4.20;;
38379;SDS011;38377;47.418;18.882;2022-09-13T18:34:23;10.05;;;4.97;;
38379;SDS011;38377;47.418;18.882;2022-09-13T18:36:49;6.00;;;3.83;;
38379;SDS011;38377;47.418;18.882;2022-09-13T18:39:19;8.43;;;4.95;;
38379;SDS011;38377;47.418;18.882;2022-09-13T18:41:46;9.88;;;4.82;;
38379;SDS011;38377;47.418;18.882;2022-09-13T18:44:14;9.18;;;5.18;;
38379;SDS011;38377;47.418;18.882;2022-09-13T18:46:41;8.00;;;4.47;;
38379;SDS011;38377;47.418;18.882;2022-09-13T18:49:07;9.13;;;4.75;;